Time;durP1;ratioP1;P1;durP2;ratioP2;P2;SDS_P1;SDS_P2;PMS_P1;PMS_P2;Temp;Humidity;BMP_temperature;BMP_pressure;BME280_temperature;BME280_humidity;BME280_pressure;Samples;Min_cycle;Max_cycle;Signal;HPM_P1;HPM_P2
2023/10/19 00:00:33;;;;;;;15.38;11.38;;;;;;;12.46;94.46;99189.16;5081455;28;20421;-69
2023/10/19 00:03:02;;;;;;;12.93;9.80;;;;;;;12.49;93.79;99178.28;5083742;28;20063;-69
2023/10/19 00:05:29;;;;;;;13.48;10.10;;;;;;;12.52;93.47;99172.78;5084070;28;20040;-69
2023/10/19 00:07:57;;;;;;;13.02;9.90;;;;;;;12.56;93.53;99178.69;5077959;28;20435;-69
2023/10/19 00:10:23;;;;;;;14.95;11.13;;;;;;;12.56;93.57;99175.22;5081257;28;20043;-69
2023/10/19 00:12:57;;;;;;;15.88;10.57;;;;;;;12.56;94.44;99188.47;5080023;28;20511;-69
2023/10/19 00:15:24;;;;;;;15.10;10.27;;;;;;;12.62;93.85;99182.69;5073468;28;20393;-69
2023/10/19 00:17:53;;;;;;;13.18;9.73;;;;;;;12.65;94.28;99185.13;5080548;28;20024;-69
2023/10/19 00:23:05;;;;;;;15.13;10.80;;;;;;;12.70;93.88;99194.41;5081140;28;20032;-69
2023/10/19 00:25:32;;;;;;;14.85;10.38;;;;;;;12.74;93.29;99189.72;5083804;28;20029;-69
2023/10/19 00:28:00;;;;;;;13.85;10.20;;;;;;;12.74;93.33;99172.00;5080484;28;20024;-68
2023/10/19 00:30:30;;;;;;;14.48;10.45;;;;;;;12.76;93.93;99178.03;5083920;28;20028;-68
2023/10/19 00:32:56;;;;;;;13.93;9.30;;;;;;;12.82;93.84;99189.97;5083832;28;20102;-69
2023/10/19 00:35:27;;;;;;;13.90;9.10;;;;;;;12.86;93.28;99182.63;5080977;28;20714;-69
2023/10/19 00:37:57;;;;;;;11.13;9.07;;;;;;;12.88;93.12;99178.06;5080045;28;20031;-69
2023/10/19 00:40:34;;;;;;;12.13;9.07;;;;;;;12.89;93.10;99179.75;5080873;28;20036;-68
2023/10/19 00:43:08;;;;;;;12.55;8.80;;;;;;;12.90;93.30;99174.31;5083491;28;20112;-69
2023/10/19 00:45:39;;;;;;;11.40;8.60;;;;;;;12.91;93.59;99175.16;5075633;28;20431;-69
2023/10/19 00:48:08;;;;;;;10.47;8.43;;;;;;;12.92;93.26;99179.53;5083168;28;20031;-69
2023/10/19 00:50:33;;;;;;;12.40;9.40;;;;;;;12.89;94.17;99177.94;5082493;28;20113;-69
2023/10/19 00:52:59;;;;;;;11.93;9.00;;;;;;;12.93;94.17;99170.63;5077869;28;20028;-69
2023/10/19 00:55:27;;;;;;;16.35;8.75;;;;;;;12.96;93.72;99179.19;5083893;28;20472;-69
2023/10/19 00:57:54;;;;;;;13.38;9.27;;;;;;;12.96;94.23;99170.34;5080883;28;20025;-69
2023/10/19 01:00:31;;;;;;;12.32;8.55;;;;;;;12.96;94.62;99173.00;5083433;28;20520;-69
2023/10/19 01:02:59;;;;;;;13.30;10.52;;;;;;;13.00;95.45;99172.66;5081209;28;20417;-69
2023/10/19 01:05:32;;;;;;;12.73;9.45;;;;;;;13.05;95.57;99163.50;5079839;28;20036;-69
2023/10/19 01:07:57;;;;;;;;;;;;;;;13.19;92.96;99164.13;5081676;28;20439;-69
2023/10/19 01:10:23;;;;;;;13.77;9.18;;;;;;;13.15;95.40;99165.34;5083130;28;19912;-69
2023/10/19 01:12:52;;;;;;;13.15;8.88;;;;;;;13.18;95.48;99166.91;5083258;28;20056;-69
2023/10/19 01:17:56;;;;;;;12.73;9.30;;;;;;;13.30;96.03;99171.31;5081153;28;20202;-69
2023/10/19 01:28:22;;;;;;;10.80;7.65;;;;;;;13.50;96.08;99167.91;5075130;28;20123;-69
2023/10/19 01:30:51;;;;;;;10.65;7.47;;;;;;;13.55;96.75;99159.59;5080007;28;20012;-69
2023/10/19 01:33:18;;;;;;;10.98;8.35;;;;;;;13.60;96.81;99165.38;5080376;28;20541;-69
2023/10/19 01:38:31;;;;;;;10.05;7.18;;;;;;;13.65;96.08;99159.69;5074441;28;20047;-69
2023/10/19 01:41:00;;;;;;;10.23;7.70;;;;;;;13.66;96.04;99159.59;5079725;28;20024;-69
2023/10/19 01:43:30;;;;;;;11.52;7.63;;;;;;;13.69;97.16;99154.00;5080087;28;20036;-69
2023/10/19 01:45:57;;;;;;;12.65;7.75;;;;;;;13.70;96.74;99161.00;5086031;28;20033;-69
2023/10/19 01:48:32;;;;;;;12.02;8.20;;;;;;;13.73;97.10;99154.63;5078748;28;20064;-69
2023/10/19 01:50:57;;;;;;;10.13;7.10;;;;;;;13.77;96.83;99146.28;5071873;28;20040;-69
2023/10/19 01:53:25;;;;;;;11.75;7.80;;;;;;;13.79;97.17;99159.44;5080236;28;20122;-69
2023/10/19 01:55:57;;;;;;;9.18;7.15;;;;;;;13.83;97.01;99154.72;5080712;28;20389;-69
2023/10/19 01:58:24;;;;;;;;;;;;;;;13.95;96.14;99157.25;5079737;28;20028;-68
2023/10/19 02:00:50;;;;;;;9.85;6.10;;;;;;;13.94;96.89;99147.59;5081358;28;19946;-69
2023/10/19 02:03:16;;;;;;;7.78;5.47;;;;;;;14.02;97.55;99154.91;5083002;28;20414;-69
2023/10/19 02:05:42;;;;;;;8.00;5.13;;;;;;;14.10;97.06;99157.81;5082323;28;20036;-69
2023/10/19 02:08:08;;;;;;;10.07;5.35;;;;;;;14.18;97.10;99159.84;5072973;28;20607;-69
2023/10/19 02:10:37;;;;;;;10.25;5.25;;;;;;;14.21;97.02;99163.06;5082155;28;20030;-69
2023/10/19 02:13:06;;;;;;;8.95;5.40;;;;;;;14.25;96.34;99159.19;5080704;28;20027;-69
2023/10/19 02:15:34;;;;;;;7.97;5.28;;;;;;;14.40;96.34;99149.09;5079263;28;20593;-69
2023/10/19 02:18:01;;;;;;;6.45;5.10;;;;;;;14.43;95.86;99154.19;5082822;28;20051;-69
2023/10/19 02:20:28;;;;;;;6.93;4.28;;;;;;;14.49;95.84;99143.06;5078832;28;20040;-69
2023/10/19 02:22:54;;;;;;;7.85;4.10;;;;;;;14.53;95.63;99139.16;5079263;28;20107;-69
2023/10/19 02:25:21;;;;;;;4.50;3.00;;;;;;;14.60;95.31;99146.66;5073125;28;20050;-69
2023/10/19 02:27:46;;;;;;;4.65;2.55;;;;;;;14.70;94.04;99148.41;5079834;28;20038;-69
2023/10/19 02:30:12;;;;;;;8.63;2.55;;;;;;;14.83;94.47;99139.38;5079321;28;20020;-68
2023/10/19 02:32:37;;;;;;;6.97;2.50;;;;;;;14.93;93.90;99142.97;5079337;28;20422;-68
2023/10/19 02:35:03;;;;;;;5.47;2.47;;;;;;;14.97;93.40;99139.06;5079346;28;20028;-69
2023/10/19 02:37:28;;;;;;;3.03;1.88;;;;;;;15.04;93.07;99132.22;5083384;28;20040;-68
2023/10/19 02:39:54;;;;;;;3.85;1.67;;;;;;;15.09;92.97;99137.16;5081748;28;20090;-68
2023/10/19 02:42:22;;;;;;;3.35;1.60;;;;;;;15.10;93.13;99137.00;5085726;28;20035;-69
2023/10/19 02:44:50;;;;;;;3.58;1.52;;;;;;;15.13;92.67;99134.09;5086426;28;20024;-68
2023/10/19 02:47:17;;;;;;;5.13;1.50;;;;;;;15.13;92.14;99131.44;5086115;28;20032;-68
2023/10/19 02:49:44;;;;;;;1.83;1.48;;;;;;;15.14;92.69;99130.44;5082976;28;20032;-68
2023/10/19 02:52:12;;;;;;;4.93;1.60;;;;;;;15.14;91.96;99134.94;5082741;28;20477;-68
2023/10/19 02:54:38;;;;;;;4.78;1.30;;;;;;;15.20;92.08;99134.41;5082953;28;20024;-69
2023/10/19 02:57:06;;;;;;;5.00;1.50;;;;;;;15.21;91.76;99133.44;5082626;28;20028;-69
2023/10/19 02:59:32;;;;;;;3.53;1.30;;;;;;;15.22;92.14;99135.13;5083926;28;20035;-68
2023/10/19 03:02:20;;;;;;;3.85;1.50;;;;;;;15.25;91.62;99129.53;5082945;28;20036;-69
2023/10/19 03:04:45;;;;;;;2.67;1.40;;;;;;;15.26;91.55;99123.22;5082664;28;20070;-69
2023/10/19 03:07:15;;;;;;;1.48;1.13;;;;;;;15.23;91.20;99129.66;5085581;28;20103;-69
2023/10/19 03:09:48;;;;;;;3.40;1.20;;;;;;;15.22;90.92;99127.97;5085185;28;20031;-68
2023/10/19 03:12:14;;;;;;;6.63;1.20;;;;;;;15.25;91.66;99134.88;5074396;28;20111;-68
2023/10/19 03:14:41;;;;;;;6.28;1.00;;;;;;;15.25;91.96;99127.72;5082508;28;20111;-68
2023/10/19 03:17:08;;;;;;;3.33;1.23;;;;;;;15.23;92.18;99123.50;5084818;28;20024;-68
2023/10/19 03:19:34;;;;;;;2.67;1.30;;;;;;;15.20;92.20;99126.41;5079187;28;20035;-69
2023/10/19 03:22:00;;;;;;;3.60;1.20;;;;;;;15.19;92.39;99119.41;5085566;28;20032;-68
2023/10/19 03:24:43;;;;;;;3.08;1.25;;;;;;;15.17;92.55;99130.19;5081156;28;20479;-68
2023/10/19 03:27:22;;;;;;;1.65;1.20;;;;;;;15.14;92.35;99126.94;5084581;28;20479;-69
2023/10/19 03:29:55;;;;;;;3.70;1.30;;;;;;;15.09;92.62;99119.34;5082248;28;20837;-69
2023/10/19 03:32:26;;;;;;;4.45;1.33;;;;;;;15.09;92.65;99113.19;5084049;28;20060;-69
2023/10/19 03:34:59;;;;;;;3.90;1.40;;;;;;;15.07;92.93;99117.81;5085464;28;20020;-69
2023/10/19 03:37:29;;;;;;;2.40;1.23;;;;;;;15.04;92.43;99111.78;5083191;28;20096;-68
2023/10/19 03:39:58;;;;;;;3.90;1.55;;;;;;;15.08;92.34;99109.69;5082014;28;20529;-69
2023/10/19 03:42:29;;;;;;;3.63;1.48;;;;;;;15.09;92.98;99105.22;5082725;28;20056;-69
2023/10/19 03:44:56;;;;;;;3.30;1.43;;;;;;;15.09;92.76;99106.06;5080753;28;20426;-69
2023/10/19 03:47:26;;;;;;;2.20;1.40;;;;;;;15.09;92.79;99107.88;5081500;28;20024;-68
2023/10/19 03:49:52;;;;;;;3.53;1.60;;;;;;;15.09;92.80;99106.06;5084874;28;20392;-68
2023/10/19 03:54:43;;;;;;;4.30;1.88;;;;;;;15.04;93.20;99103.78;5081905;28;20126;-68
2023/10/19 03:57:22;;;;;;;2.17;1.30;;;;;;;15.03;93.35;99109.25;5081225;28;20050;-69
2023/10/19 03:59:50;;;;;;;3.78;1.42;;;;;;;15.00;93.47;99107.69;5078417;28;20136;-69
2023/10/19 04:02:16;;;;;;;2.10;1.55;;;;;;;15.00;93.53;99102.38;5084525;28;20031;-68
2023/10/19 04:04:43;;;;;;;4.68;1.50;;;;;;;15.00;93.58;99101.53;5084336;28;20123;-69
2023/10/19 04:07:21;;;;;;;6.53;1.73;;;;;;;14.94;94.03;99092.25;5081067;28;20060;-68
2023/10/19 04:10:03;;;;;;;5.70;1.73;;;;;;;14.94;93.50;99094.91;5075396;28;20025;-69
2023/10/19 04:12:29;;;;;;;5.80;1.77;;;;;;;14.91;92.89;99097.00;5084315;28;20032;-69
2023/10/19 04:14:56;;;;;;;1.88;1.50;;;;;;;14.88;92.83;99097.28;5084065;28;20043;-68
2023/10/19 04:17:23;;;;;;;5.43;1.83;;;;;;;14.65;94.40;99099.22;5082279;28;20414;-69
2023/10/19 04:19:51;;;;;;;2.90;1.67;;;;;;;14.57;94.67;99107.00;5076780;28;20083;-68
2023/10/19 04:22:26;;;;;;;1.92;1.60;;;;;;;14.55;94.92;99104.50;5083898;28;20048;-68
2023/10/19 04:24:52;;;;;;;4.22;2.03;;;;;;;14.57;94.37;99096.38;5077244;28;20063;-69
2023/10/19 04:27:21;;;;;;;3.53;2.03;;;;;;;14.55;94.80;99091.19;5082468;28;20202;-69
2023/10/19 04:29:46;;;;;;;3.47;1.80;;;;;;;14.54;94.73;99097.47;5079355;28;20035;-69
2023/10/19 04:32:14;;;;;;;6.00;2.10;;;;;;;14.54;94.83;99089.47;5080018;28;20081;-69
2023/10/19 04:34:40;;;;;;;5.78;1.83;;;;;;;14.65;94.65;99091.25;5082897;28;20020;-69
2023/10/19 04:37:06;;;;;;;3.42;1.77;;;;;;;14.58;95.29;99098.88;5081454;28;20081;-69
2023/10/19 04:39:32;;;;;;;3.50;1.77;;;;;;;14.58;95.33;99087.41;5079808;28;20024;-69
2023/10/19 04:41:57;;;;;;;2.97;1.55;;;;;;;14.57;94.74;99094.56;5081654;28;20537;-69
2023/10/19 04:44:22;;;;;;;4.18;1.70;;;;;;;14.57;94.79;99099.03;5083294;28;20503;-68
2023/10/19 04:46:48;;;;;;;2.70;1.67;;;;;;;14.52;94.99;99097.59;5080646;28;20032;-68
2023/10/19 04:49:13;;;;;;;5.20;1.77;;;;;;;14.50;94.41;99096.03;5080657;28;20459;-69
2023/10/19 04:51:39;;;;;;;3.78;1.70;;;;;;;14.49;94.49;99107.66;5083215;28;20467;-69
2023/10/19 04:54:05;;;;;;;5.43;2.00;;;;;;;14.49;95.35;99107.66;5081083;28;20035;-69
2023/10/19 04:56:32;;;;;;;5.82;1.77;;;;;;;14.47;95.29;99114.88;5082089;28;20027;-69
2023/10/19 04:58:57;;;;;;;3.45;1.63;;;;;;;14.49;95.04;99113.81;5082763;28;20077;-69
2023/10/19 05:01:22;;;;;;;3.25;2.00;;;;;;;14.51;94.92;99111.88;5083599;28;20031;-69
2023/10/19 05:03:48;;;;;;;3.20;1.67;;;;;;;14.52;95.57;99112.72;5079893;28;20257;-69
2023/10/19 05:06:13;;;;;;;2.28;1.63;;;;;;;14.55;94.95;99115.13;5079795;28;20498;-69
2023/10/19 05:08:39;;;;;;;4.03;1.70;;;;;;;14.52;95.06;99108.25;5080868;28;20036;-69
2023/10/19 05:11:05;;;;;;;4.25;1.80;;;;;;;14.52;94.95;99110.91;5083057;28;20031;-69
2023/10/19 05:13:32;;;;;;;7.07;1.90;;;;;;;14.52;94.58;99115.38;5083777;28;20467;-69
2023/10/19 05:15:58;;;;;;;5.47;1.67;;;;;;;14.53;94.90;99114.41;5080881;28;20024;-69
2023/10/19 05:18:25;;;;;;;3.50;1.65;;;;;;;14.52;95.34;99118.88;5077302;28;20035;-69
2023/10/19 05:20:55;;;;;;;3.70;1.70;;;;;;;14.54;94.72;99121.41;5079796;28;20032;-69
2023/10/19 05:23:24;;;;;;;5.35;1.85;;;;;;;14.51;94.76;99122.50;5080052;28;20530;-69
2023/10/19 05:26:00;;;;;;;3.90;1.55;;;;;;;14.51;94.84;99114.53;5079185;28;20530;-69
2023/10/19 05:28:26;;;;;;;7.10;1.77;;;;;;;14.69;93.82;99122.78;5079079;28;20039;-68
2023/10/19 05:30:51;;;;;;;4.78;1.58;;;;;;;14.72;93.33;99125.16;5079612;28;20024;-68
2023/10/19 05:33:20;;;;;;;6.22;1.90;;;;;;;14.71;93.52;99118.16;5071207;28;20379;-69
2023/10/19 05:35:46;;;;;;;5.30;1.90;;;;;;;14.72;93.23;99117.19;5079528;28;20025;-69
2023/10/19 05:38:12;;;;;;;5.07;1.73;;;;;;;14.72;92.71;99125.16;5080797;28;20488;-69
2023/10/19 05:40:38;;;;;;;4.28;1.45;;;;;;;14.72;93.15;99119.00;5077575;28;20091;-69
2023/10/19 05:43:05;;;;;;;5.57;1.80;;;;;;;14.71;92.69;99115.50;5082568;28;20028;-69
2023/10/19 05:45:33;;;;;;;5.65;1.63;;;;;;;14.71;92.12;99120.81;5077365;28;20028;-69
2023/10/19 05:48:00;;;;;;;6.13;1.70;;;;;;;14.73;92.33;99133.97;5082134;28;20020;-68
2023/10/19 05:50:25;;;;;;;6.13;1.60;;;;;;;14.75;92.26;99137.38;5073503;28;20033;-69
2023/10/19 05:52:51;;;;;;;8.98;2.03;;;;;;;14.77;92.42;99138.06;5077127;28;20032;-69
2023/10/19 05:55:17;;;;;;;6.25;1.67;;;;;;;14.78;92.63;99134.44;5079566;28;20026;-69
2023/10/19 05:57:43;;;;;;;6.10;1.63;;;;;;;14.76;92.85;99142.56;5082192;28;20458;-69
2023/10/19 06:00:14;;;;;;;6.82;1.60;;;;;;;14.75;92.72;99129.41;5075436;28;20085;-69
2023/10/19 06:02:45;;;;;;;8.48;2.03;;;;;;;14.76;92.74;99136.41;5081414;28;20527;-69
2023/10/19 06:05:12;;;;;;;4.65;1.92;;;;;;;14.75;92.45;99140.03;5081959;28;20491;-69
2023/10/19 06:07:37;;;;;;;3.05;1.85;;;;;;;14.74;93.14;99141.84;5079456;28;20028;-69
2023/10/19 06:10:06;;;;;;;5.10;1.70;;;;;;;14.74;92.56;99141.84;5073768;28;20031;-68
2023/10/19 06:12:32;;;;;;;5.70;1.63;;;;;;;14.72;92.72;99135.81;5081169;28;20036;-69
2023/10/19 06:15:00;;;;;;;5.63;1.60;;;;;;;14.72;92.69;99141.13;5079246;28;20013;-69
2023/10/19 06:17:26;;;;;;;4.75;1.88;;;;;;;14.69;92.51;99144.06;5085048;28;20054;-69
2023/10/19 06:19:51;;;;;;;3.83;1.48;;;;;;;14.72;92.77;99146.44;5080085;28;20116;-69
2023/10/19 06:22:16;;;;;;;5.40;1.67;;;;;;;14.74;92.72;99149.00;5078934;28;20029;-69
2023/10/19 06:24:43;;;;;;;10.10;2.10;;;;;;;14.75;92.83;99146.19;5084555;28;20492;-69
2023/10/19 06:27:09;;;;;;;7.85;1.70;;;;;;;14.76;92.25;99147.88;5078526;28;20135;-69
2023/10/19 06:29:34;;;;;;;7.82;1.88;;;;;;;14.80;92.37;99145.81;5076587;28;20060;-69
2023/10/19 06:31:59;;;;;;;6.22;1.77;;;;;;;14.82;92.82;99145.66;5080340;28;20123;-68
2023/10/19 06:34:27;;;;;;;6.47;1.90;;;;;;;14.85;92.60;99145.41;5081793;28;20055;-69
2023/10/19 06:36:52;;;;;;;8.00;1.85;;;;;;;14.85;92.65;99145.41;5081934;28;20031;-69
2023/10/19 06:39:19;;;;;;;7.28;1.80;;;;;;;14.87;92.70;99156.75;5075911;28;20396;-68
2023/10/19 06:41:44;;;;;;;8.10;1.90;;;;;;;14.85;92.58;99158.72;5076219;28;20148;-69
2023/10/19 06:44:11;;;;;;;4.80;1.90;;;;;;;14.85;92.49;99150.75;5080662;28;20456;-68
2023/10/19 06:46:36;;;;;;;7.45;2.10;;;;;;;14.83;92.33;99158.88;5079986;28;20027;-69
2023/10/19 06:49:02;;;;;;;6.93;2.08;;;;;;;14.88;92.53;99158.47;5077968;28;20020;-69
2023/10/19 06:51:27;;;;;;;5.35;1.83;;;;;;;14.90;92.19;99156.50;5078420;28;20409;-69
2023/10/19 06:53:53;;;;;;;7.28;1.55;;;;;;;14.92;92.55;99152.75;5075514;28;20475;-69
2023/10/19 06:56:18;;;;;;;5.35;1.55;;;;;;;14.96;92.35;99162.13;5081183;28;20114;-69
2023/10/19 06:58:44;;;;;;;6.63;1.92;;;;;;;14.99;92.75;99161.88;5077980;28;20020;-69
2023/10/19 07:01:10;;;;;;;6.97;1.90;;;;;;;15.02;92.37;99158.97;5076968;28;20031;-69
2023/10/19 07:03:36;;;;;;;7.78;2.05;;;;;;;15.06;92.69;99156.88;5079304;28;20510;-69
2023/10/19 07:06:02;;;;;;;7.88;2.22;;;;;;;15.09;92.62;99161.94;5078249;28;20035;-69
2023/10/19 07:08:28;;;;;;;6.93;2.15;;;;;;;15.14;92.25;99170.38;5078058;28;20035;-69
2023/10/19 07:10:53;;;;;;;5.60;2.15;;;;;;;15.19;92.86;99165.50;5071196;28;20019;-69
2023/10/19 07:13:20;;;;;;;4.95;1.95;;;;;;;15.25;92.71;99174.81;5081978;28;20051;-69
2023/10/19 07:15:46;;;;;;;5.18;2.05;;;;;;;15.28;92.11;99174.50;5080198;28;20016;-69
2023/10/19 07:18:13;;;;;;;4.07;1.83;;;;;;;15.30;92.24;99181.41;5074929;28;20023;-69
2023/10/19 07:20:39;;;;;;;6.45;1.98;;;;;;;15.37;92.24;99180.88;5081269;28;20061;-69
2023/10/19 07:23:25;;;;;;;6.93;2.35;;;;;;;15.38;91.96;99179.88;5080334;28;20103;-69
2023/10/19 07:25:56;;;;;;;8.05;2.15;;;;;;;15.39;91.64;99182.44;5081796;28;20020;-69
2023/10/19 07:28:22;;;;;;;7.50;1.83;;;;;;;15.40;92.16;99177.94;5081674;28;20032;-69
2023/10/19 07:30:48;;;;;;;6.30;1.85;;;;;;;15.39;92.04;99176.25;5081705;28;20369;-69
2023/10/19 07:33:17;;;;;;;7.07;2.03;;;;;;;15.39;92.25;99184.22;5084897;28;20069;-69
2023/10/19 07:35:45;;;;;;;5.20;1.70;;;;;;;15.40;91.97;99175.28;5085027;28;20050;-69
2023/10/19 07:38:11;;;;;;;6.28;2.35;;;;;;;15.44;91.90;99174.06;5082660;28;20099;-69
2023/10/19 07:40:36;;;;;;;8.32;2.30;;;;;;;15.45;91.92;99165.06;5081393;28;20111;-69
2023/10/19 07:43:03;;;;;;;6.32;2.00;;;;;;;15.48;91.44;99163.00;5081729;28;20021;-69
2023/10/19 07:45:31;;;;;;;6.35;1.90;;;;;;;15.50;91.64;99171.69;5070824;28;20097;-69
2023/10/19 07:47:57;;;;;;;5.93;2.08;;;;;;;15.53;91.53;99166.09;5084660;28;20012;-69
2023/10/19 07:50:22;;;;;;;4.13;1.50;;;;;;;15.56;91.85;99163.16;5082182;28;20505;-69
2023/10/19 07:52:51;;;;;;;8.25;2.05;;;;;;;15.63;91.27;99163.47;5082509;28;20028;-69
2023/10/19 07:55:22;;;;;;;5.10;2.05;;;;;;;15.71;91.24;99168.13;5083982;28;20020;-69
2023/10/19 07:57:50;;;;;;;6.63;2.10;;;;;;;15.81;91.20;99161.88;5081135;28;20495;-68
2023/10/19 08:00:17;;;;;;;9.45;2.00;;;;;;;15.86;90.71;99161.47;5085347;28;20020;-69
2023/10/19 08:02:45;;;;;;;2.78;1.60;;;;;;;15.88;90.70;99171.97;5081527;28;20056;-69
2023/10/19 08:05:11;;;;;;;6.25;1.73;;;;;;;15.88;90.17;99164.00;5080771;28;20036;-69
2023/10/19 08:07:39;;;;;;;5.88;1.80;;;;;;;15.86;89.96;99172.13;5081297;28;20028;-69
2023/10/19 08:10:06;;;;;;;8.07;1.88;;;;;;;15.77;90.83;99157.78;5083941;28;20480;-69
2023/10/19 08:12:32;;;;;;;5.75;1.98;;;;;;;15.88;90.46;99159.50;5083074;28;20036;-69
2023/10/19 08:14:59;;;;;;;9.15;1.90;;;;;;;16.03;89.04;99146.63;5080705;28;20017;-69
2023/10/19 08:17:24;;;;;;;5.20;1.75;;;;;;;16.05;88.98;99150.84;5087637;28;20063;-69
2023/10/19 08:19:50;;;;;;;6.88;2.10;;;;;;;16.10;88.92;99153.09;5076456;28;20079;-69
2023/10/19 08:22:15;;;;;;;3.50;1.50;;;;;;;16.16;88.27;99146.38;5081219;28;20066;-68
2023/10/19 08:24:43;;;;;;;5.50;1.90;;;;;;;16.10;88.98;99141.59;5086719;28;20073;-68
2023/10/19 08:27:10;;;;;;;5.38;1.45;;;;;;;16.06;88.40;99147.19;5072184;28;20063;-69
2023/10/19 08:29:36;;;;;;;12.40;2.03;;;;;;;16.19;89.55;99146.94;5080146;28;20059;-69
2023/10/19 08:32:02;;;;;;;9.73;1.90;;;;;;;16.38;88.71;99135.44;5080957;28;20063;-69
2023/10/19 08:34:29;;;;;;;5.85;2.35;;;;;;;16.63;88.75;99141.19;5079549;28;20034;-68
2023/10/19 08:36:55;;;;;;;8.57;2.35;;;;;;;16.80;87.26;99145.84;5080355;28;20025;-69
2023/10/19 08:39:20;;;;;;;6.57;2.00;;;;;;;16.93;86.82;99140.19;5080846;28;20391;-69
2023/10/19 08:41:48;;;;;;;12.32;2.10;;;;;;;16.97;85.79;99141.56;5078537;28;20464;-69
2023/10/19 08:44:17;;;;;;;6.60;1.50;;;;;;;16.90;86.01;99137.81;5082447;28;20024;-68
2023/10/19 08:46:45;;;;;;;6.18;1.50;;;;;;;16.95;85.47;99139.06;5082616;28;20478;-69
2023/10/19 08:49:12;;;;;;;6.80;1.50;;;;;;;17.17;84.35;99137.03;5082662;28;20099;-68
2023/10/19 08:51:38;;;;;;;5.80;1.67;;;;;;;17.66;83.24;99138.50;5080234;28;20107;-69
2023/10/19 08:54:05;;;;;;;7.13;1.38;;;;;;;18.95;79.03;99134.63;5078747;28;20478;-69
2023/10/19 08:56:33;;;;;;;5.43;1.50;;;;;;;21.15;72.20;99131.69;5081006;28;20413;-69
2023/10/19 08:58:58;;;;;;;5.03;1.42;;;;;;;23.08;63.31;99136.34;5080422;28;20025;-68
2023/10/19 09:01:23;;;;;;;7.78;1.33;;;;;;;23.90;57.89;99134.41;5079970;28;20391;-68
2023/10/19 09:03:50;;;;;;;8.25;1.60;;;;;;;24.32;55.95;99138.22;5080129;28;20124;-68
2023/10/19 09:06:15;;;;;;;5.85;1.23;;;;;;;24.85;55.99;99144.16;5079836;28;20081;-68
2023/10/19 09:08:41;;;;;;;5.18;1.23;;;;;;;25.26;52.67;99132.63;5081526;28;20032;-69
2023/10/19 09:11:13;;;;;;;3.20;1.08;;;;;;;26.35;52.22;99135.44;5080242;28;20075;-68
2023/10/19 09:13:49;;;;;;;5.80;1.95;;;;;;;27.04;52.35;99126.13;5082100;28;20099;-69
2023/10/19 09:16:17;;;;;;;6.85;1.55;;;;;;;27.28;46.14;99123.81;5080339;28;20020;-69
2023/10/19 09:18:43;;;;;;;7.28;1.33;;;;;;;27.77;46.29;99112.44;5080254;28;20081;-69
2023/10/19 09:21:11;;;;;;;6.03;1.30;;;;;;;28.40;44.41;99104.41;5080081;28;20031;-69
2023/10/19 09:23:37;;;;;;;4.65;1.42;;;;;;;27.90;44.51;99100.69;5080034;28;20484;-69
2023/10/19 09:26:05;;;;;;;4.03;1.35;;;;;;;26.21;47.77;99112.06;5079536;28;20038;-69
2023/10/19 09:28:33;;;;;;;8.13;1.50;;;;;;;24.14;54.40;99102.72;5078829;28;20025;-69
2023/10/19 09:31:00;;;;;;;5.43;1.33;;;;;;;24.05;53.59;99111.94;5083987;28;20060;-69
2023/10/19 09:33:27;;;;;;;5.72;1.55;;;;;;;24.41;54.25;99104.69;5079791;28;20036;-68
2023/10/19 09:35:54;;;;;;;7.05;1.48;;;;;;;25.06;51.97;99104.59;5079762;28;20028;-69
2023/10/19 09:38:24;;;;;;;4.70;1.33;;;;;;;25.76;51.32;99113.59;5071812;28;20543;-69
2023/10/19 09:40:54;;;;;;;9.27;1.73;;;;;;;25.38;51.29;99112.13;5074144;28;20033;-70
2023/10/19 09:43:44;;;;;;;6.22;1.33;;;;;;;25.60;53.79;99110.16;5082593;28;20125;-69
2023/10/19 09:46:12;;;;;;;4.95;1.42;;;;;;;25.75;50.13;99112.72;5076016;28;20041;-69
2023/10/19 09:48:42;;;;;;;6.03;1.27;;;;;;;24.99;51.13;99109.94;5083164;28;20107;-69
2023/10/19 09:51:09;;;;;;;6.95;1.30;;;;;;;24.63;54.00;99105.53;5082378;28;20027;-69
2023/10/19 09:53:36;;;;;;;5.63;1.45;;;;;;;23.95;52.42;99109.56;5069803;28;20483;-69
2023/10/19 09:56:06;;;;;;;5.47;1.77;;;;;;;23.08;55.27;99112.97;5083020;28;20030;-69
2023/10/19 09:58:40;;;;;;;5.43;1.40;;;;;;;22.60;59.10;99101.56;5080785;28;20040;-69
2023/10/19 10:01:11;;;;;;;9.35;1.52;;;;;;;22.12;59.62;99089.31;5072270;28;20024;-69
2023/10/19 10:03:51;;;;;;;4.68;1.20;;;;;;;21.82;61.97;99090.97;5082037;28;20135;-69
2023/10/19 10:06:55;;;;;;;6.90;1.45;;;;;;;21.64;62.07;99083.19;5082868;28;20024;-69
2023/10/19 10:09:23;;;;;;;8.57;2.10;;;;;;;21.23;63.33;99083.31;5076109;28;20046;-69
2023/10/19 10:11:52;;;;;;;9.18;1.63;;;;;;;20.94;65.12;99078.53;5073806;28;20667;-70
2023/10/19 10:14:24;;;;;;;6.45;1.35;;;;;;;21.21;64.63;99077.25;5082481;28;20440;-69
2023/10/19 10:16:59;;;;;;;;;;;;;;;21.42;63.31;99082.09;5082870;28;20446;-69
2023/10/19 10:19:24;;;;;;;8.48;1.48;;;;;;;21.25;64.14;99080.44;5082882;28;19916;-69
2023/10/19 10:22:14;;;;;;;6.93;1.40;;;;;;;21.17;64.89;99094.75;5080422;28;20542;-69
2023/10/19 10:24:44;;;;;;;4.70;1.40;;;;;;;21.43;63.87;99094.53;5073781;28;20468;-69
2023/10/19 10:27:13;;;;;;;4.43;1.40;;;;;;;21.50;63.29;99098.22;5070243;28;20468;-69
2023/10/19 10:29:54;;;;;;;8.18;2.00;;;;;;;21.86;62.03;99093.13;5077609;28;20037;-69
2023/10/19 10:32:44;;;;;;;6.03;2.03;;;;;;;21.89;63.30;99097.34;5070979;28;20028;-69
2023/10/19 10:35:09;;;;;;;5.40;1.75;;;;;;;22.22;61.49;99094.47;5081193;28;20044;-69
2023/10/19 10:37:39;;;;;;;6.18;1.30;;;;;;;22.06;60.98;99095.41;5081205;28;20448;-69
2023/10/19 10:40:06;;;;;;;8.80;1.88;;;;;;;21.88;61.26;99095.66;5077253;28;20074;-69
2023/10/19 10:42:31;;;;;;;6.85;1.48;;;;;;;22.02;60.46;99097.59;5078479;28;20028;-69
2023/10/19 10:44:56;;;;;;;7.53;2.03;;;;;;;21.47;62.14;99090.47;5083395;28;20118;-69
2023/10/19 10:47:24;;;;;;;9.02;1.67;;;;;;;21.49;62.56;99091.13;5078950;28;20024;-69
2023/10/19 10:50:00;;;;;;;7.68;2.08;;;;;;;21.87;62.75;99084.06;5078476;28;20032;-69
2023/10/19 10:52:33;;;;;;;5.53;1.63;;;;;;;21.87;61.91;99100.22;5078617;28;20373;-69
2023/10/19 10:55:07;;;;;;;5.88;2.08;;;;;;;22.06;61.35;99100.78;5078488;28;20031;-69
2023/10/19 10:57:33;;;;;;;9.70;2.10;;;;;;;21.91;61.32;99095.28;5081794;28;20031;-69
2023/10/19 11:00:08;;;;;;;7.78;1.83;;;;;;;21.79;62.07;99102.09;5082830;28;20139;-69
2023/10/19 11:02:40;;;;;;;10.55;2.03;;;;;;;21.61;62.76;99102.34;5084283;28;20065;-69
2023/10/19 11:05:11;;;;;;;4.60;1.48;;;;;;;21.23;64.34;99098.59;5085153;28;20491;-69
2023/10/19 11:07:37;;;;;;;8.63;1.73;;;;;;;20.89;64.62;99100.53;5083028;28;20051;-69
2023/10/19 11:10:02;;;;;;;7.82;1.67;;;;;;;20.74;66.39;99087.94;5081843;28;20098;-69
2023/10/19 11:12:28;;;;;;;7.10;1.42;;;;;;;20.82;66.01;99086.09;5081896;28;20078;-69
2023/10/19 11:15:05;;;;;;;9.02;1.88;;;;;;;21.07;66.13;99077.97;5085417;28;20024;-69
2023/10/19 11:17:31;;;;;;;6.35;1.77;;;;;;;21.12;64.97;99078.28;5076992;28;20388;-69
2023/10/19 11:19:57;;;;;;;8.82;1.80;;;;;;;21.29;64.68;99071.84;5082539;28;20042;-69
2023/10/19 11:22:26;;;;;;;8.27;1.75;;;;;;;21.61;63.38;99057.47;5081654;28;20399;-69
2023/10/19 11:24:54;;;;;;;7.47;1.85;;;;;;;22.00;62.12;99058.41;5088505;28;20494;-69
2023/10/19 11:27:26;;;;;;;6.25;1.60;;;;;;;22.69;60.58;99058.41;5081709;28;20037;-68
2023/10/19 11:29:56;;;;;;;5.00;1.73;;;;;;;22.70;59.84;99055.50;5081260;28;20042;-69
2023/10/19 11:32:22;;;;;;;8.77;1.63;;;;;;;22.59;60.45;99055.97;5081691;28;20086;-69
2023/10/19 11:34:48;;;;;;;6.97;1.60;;;;;;;22.43;60.63;99048.88;5081644;28;20036;-68
2023/10/19 11:37:13;;;;;;;6.80;1.75;;;;;;;22.06;61.91;99055.03;5082628;28;20024;-69
2023/10/19 11:39:39;;;;;;;6.93;2.00;;;;;;;21.65;63.25;99047.19;5084931;28;20040;-69
2023/10/19 11:42:04;;;;;;;7.32;1.55;;;;;;;21.48;62.85;99043.75;5082455;28;20024;-69
2023/10/19 11:44:30;;;;;;;9.57;2.05;;;;;;;21.25;64.31;99045.50;5082379;28;20016;-69
2023/10/19 11:46:55;;;;;;;5.13;1.40;;;;;;;21.03;64.92;99047.94;5084682;28;20024;-69
2023/10/19 11:49:20;;;;;;;5.50;1.70;;;;;;;20.88;65.53;99034.34;5084588;28;20769;-70
2023/10/19 11:51:46;;;;;;;7.20;1.58;;;;;;;20.74;66.31;99037.75;5084733;28;20340;-69
2023/10/19 11:54:12;;;;;;;7.22;2.03;;;;;;;20.61;66.39;99026.69;5081297;28;20067;-69